Time;durP1;ratioP1;P1;durP2;ratioP2;P2;SDS_P1;SDS_P2;PMS_P1;PMS_P2;Temp;Humidity;BMP_temperature;BMP_pressure;BME280_temperature;BME280_humidity;BME280_pressure;Samples;Min_cycle;Max_cycle;Signal;HPM_P1;HPM_P2
2022/10/16 00:01:28;;;;;;;17.85;7.75;;;;;;;9.38;83.60;150012.08;1793551;80;21500;-66
2022/10/16 00:03:57;;;;;;;30.23;8.20;;;;;;;9.31;84.59;149995.22;1785680;80;21016;-66
2022/10/16 00:06:24;;;;;;;27.48;8.63;;;;;;;9.27;84.77;149984.86;1792896;80;21547;-66
2022/10/16 00:08:52;;;;;;;28.67;8.20;;;;;;;9.22;85.17;149973.17;1792660;79;21197;-67
2022/10/16 00:11:24;;;;;;;21.17;7.92;;;;;;;9.14;85.16;149952.45;1792825;80;21069;-66
2022/10/16 00:13:58;;;;;;;22.17;8.40;;;;;;;9.05;85.53;149930.41;1791948;80;21073;-66
2022/10/16 00:16:26;;;;;;;22.87;8.20;;;;;;;8.95;86.33;149904.47;1792967;79;21237;-66
2022/10/16 00:18:54;;;;;;;21.10;6.95;;;;;;;8.85;86.66;149879.88;1792591;79;21554;-66
2022/10/16 00:21:25;;;;;;;21.37;6.33;;;;;;;8.81;87.26;149869.47;1792123;80;21092;-66
2022/10/16 00:23:56;;;;;;;10.10;5.08;;;;;;;8.79;87.73;149864.30;1791931;80;21475;-66
2022/10/16 00:26:23;;;;;;;11.78;4.85;;;;;;;8.81;88.47;149870.80;1791947;80;21042;-66
2022/10/16 00:28:52;;;;;;;11.95;5.12;;;;;;;8.87;88.65;149885.06;1792457;79;21074;-66
2022/10/16 00:31:34;;;;;;;14.23;5.25;;;;;;;8.92;88.76;149896.69;1792276;80;21013;-66
2022/10/16 00:34:06;;;;;;;14.15;5.15;;;;;;;8.92;88.63;149896.69;1785222;80;21886;-66
2022/10/16 00:36:36;;;;;;;16.32;5.35;;;;;;;8.91;88.51;149894.09;1792759;79;21058;-66
2022/10/16 00:39:03;;;;;;;14.45;5.72;;;;;;;8.90;88.55;149892.83;1792474;80;20979;-66
2022/10/16 00:41:30;;;;;;;17.05;5.97;;;;;;;8.89;88.52;149891.50;1792258;80;21523;-66
2022/10/16 00:43:59;;;;;;;20.20;6.87;;;;;;;8.86;88.32;149883.73;1792384;80;21037;-65
2022/10/16 00:46:40;;;;;;;15.35;6.42;;;;;;;8.82;88.14;149873.38;1792711;80;21782;-65
2022/10/16 00:49:16;;;;;;;18.15;6.50;;;;;;;8.76;88.19;149857.84;1790475;80;21026;-67
2022/10/16 00:51:52;;;;;;;15.80;6.80;;;;;;;8.71;88.21;149844.84;1792358;80;21061;-67
2022/10/16 00:54:23;;;;;;;15.35;6.05;;;;;;;8.68;88.41;149837.08;1765824;80;21100;-65
2022/10/16 00:56:50;;;;;;;13.48;6.55;;;;;;;8.66;88.49;149831.91;1780129;80;21506;-65
2022/10/16 00:59:27;;;;;;;20.60;9.48;;;;;;;8.60;88.54;149818.95;1781054;80;21214;-66
2022/10/16 01:01:54;;;;;;;23.77;10.10;;;;;;;8.56;88.57;149808.59;1781473;80;21069;-66
2022/10/16 01:04:21;;;;;;;18.10;8.28;;;;;;;8.52;88.68;149798.23;1780973;80;21530;-66
2022/10/16 01:07:13;;;;;;;17.82;8.98;;;;;;;8.48;88.86;149786.52;1781132;80;21498;-66
2022/10/16 01:09:59;;;;;;;16.15;8.58;;;;;;;8.46;89.20;149782.61;1778091;80;21086;-66
2022/10/16 01:12:54;;;;;;;17.12;7.58;;;;;;;8.45;89.38;149780.02;1781123;80;21222;-65
2022/10/16 01:15:33;;;;;;;15.98;6.55;;;;;;;8.44;89.48;149777.44;1780946;80;21490;-66
2022/10/16 01:18:20;;;;;;;17.65;6.47;;;;;;;8.43;89.58;149774.84;1781233;80;21025;-65
2022/10/16 01:21:02;;;;;;;13.20;5.78;;;;;;;8.43;89.78;149774.84;1766328;80;21055;-67
2022/10/16 01:23:59;;;;;;;11.90;5.30;;;;;;;8.44;90.22;149777.44;1780842;80;21067;-65
2022/10/16 01:26:47;;;;;;;19.67;5.90;;;;;;;8.46;90.23;149782.61;1768964;80;21130;-66
2022/10/16 01:29:28;;;;;;;12.73;5.78;;;;;;;8.48;90.32;149786.52;1780863;80;21050;-66
2022/10/16 01:31:59;;;;;;;9.80;5.30;;;;;;;8.49;90.12;149789.11;1774482;80;21061;-66
2022/10/16 01:34:46;;;;;;;16.57;6.42;;;;;;;8.49;90.22;149790.38;1756876;80;21043;-66
2022/10/16 01:37:18;;;;;;;34.98;12.37;;;;;;;8.50;90.04;149793.02;1759069;80;21031;-66
2022/10/16 01:39:46;;;;;;;38.70;11.15;;;;;;;8.43;89.10;149776.16;1780922;80;21094;-65
2022/10/16 01:42:17;;;;;;;36.48;11.03;;;;;;;8.27;88.54;149735.97;1780880;80;21007;-66
2022/10/16 01:44:44;;;;;;;25.68;8.33;;;;;;;8.13;88.46;149701.00;1780880;80;21063;-65
2022/10/16 01:47:11;;;;;;;13.55;6.20;;;;;;;7.99;88.88;149664.75;1780871;80;20974;-65
2022/10/16 01:49:39;;;;;;;14.53;5.62;;;;;;;7.90;90.13;149642.73;1756969;80;21049;-65
2022/10/16 01:52:09;;;;;;;11.50;5.70;;;;;;;7.88;90.74;149637.56;1742079;81;22292;-65
2022/10/16 01:54:37;;;;;;;13.75;5.15;;;;;;;7.90;91.52;149642.73;1763291;80;21052;-66
2022/10/16 01:57:05;;;;;;;13.20;5.90;;;;;;;7.95;91.87;149654.34;1784773;80;21027;-66
2022/10/16 01:59:35;;;;;;;22.65;6.97;;;;;;;7.95;91.83;149655.67;1784541;80;21033;-66
2022/10/16 02:02:07;;;;;;;17.75;6.42;;;;;;;7.92;91.46;149647.91;1784685;80;21104;-66
2022/10/16 02:04:50;;;;;;;12.58;5.97;;;;;;;7.83;91.04;149625.89;1780936;80;21179;-66
2022/10/16 02:07:17;;;;;;;21.77;6.35;;;;;;;7.72;90.56;149598.69;1784007;80;21053;-66
2022/10/16 02:09:45;;;;;;;13.18;7.37;;;;;;;7.61;90.36;149570.19;1785372;80;21057;-66
2022/10/16 02:12:31;;;;;;;13.28;6.78;;;;;;;7.53;90.20;149549.48;1785443;80;20964;-66
2022/10/16 02:14:58;;;;;;;16.32;6.70;;;;;;;7.46;90.20;149532.64;1781288;80;21423;-66
2022/10/16 02:17:26;;;;;;;13.10;6.92;;;;;;;7.42;90.41;149523.61;1765326;80;21224;-66
2022/10/16 02:19:55;;;;;;;18.07;7.90;;;;;;;7.40;90.64;149518.39;1760870;81;21780;-66
2022/10/16 02:22:36;;;;;;;18.42;6.53;;;;;;;7.40;90.43;149518.39;1784466;80;21017;-64
2022/10/16 02:25:25;;;;;;;17.10;7.28;;;;;;;7.39;90.43;149514.53;1783987;80;21108;-63
2022/10/16 02:28:04;;;;;;;17.12;6.85;;;;;;;7.35;89.94;149505.45;1784088;80;21312;-64
2022/10/16 02:31:00;;;;;;;18.57;8.18;;;;;;;7.28;89.08;149487.34;1727928;81;21156;-63
2022/10/16 02:33:27;;;;;;;17.10;7.58;;;;;;;7.19;88.57;149464.06;1741419;82;21074;-63
2022/10/16 02:35:54;;;;;;;17.50;6.78;;;;;;;7.07;88.02;149434.25;1784195;80;21419;-63
2022/10/16 02:38:21;;;;;;;13.13;6.97;;;;;;;6.97;87.88;149410.97;1773331;80;20968;-64
2022/10/16 02:40:48;;;;;;;16.73;6.70;;;;;;;6.93;87.74;149400.63;1784072;80;21013;-63
2022/10/16 02:43:14;;;;;;;18.73;8.78;;;;;;;6.87;87.52;149386.37;1766678;80;21294;-63
2022/10/16 02:45:41;;;;;;;16.32;7.50;;;;;;;6.82;87.33;149373.45;1760492;81;21027;-63
2022/10/16 02:48:09;;;;;;;14.15;7.33;;;;;;;6.78;87.23;149361.80;1784145;80;21366;-63
2022/10/16 02:50:37;;;;;;;15.48;7.50;;;;;;;6.72;87.09;149347.55;1783997;80;21094;-63
2022/10/16 02:53:04;;;;;;;17.92;8.03;;;;;;;6.69;87.06;149339.80;1783938;80;21113;-63
2022/10/16 02:55:31;;;;;;;19.07;7.60;;;;;;;6.65;86.89;149330.77;1783101;80;21303;-63
2022/10/16 02:57:58;;;;;;;19.40;8.35;;;;;;;6.60;86.83;149317.80;1781792;80;21077;-63
2022/10/16 03:00:25;;;;;;;18.95;8.50;;;;;;;6.57;86.60;149311.34;1782664;80;20998;-64
2022/10/16 03:02:52;;;;;;;18.95;8.45;;;;;;;6.51;86.33;149295.80;1783320;80;20911;-64
2022/10/16 03:05:19;;;;;;;16.77;8.43;;;;;;;6.48;86.14;149286.77;1783663;79;21035;-64
2022/10/16 03:07:46;;;;;;;17.10;7.97;;;;;;;6.40;85.89;149268.63;1782620;80;21328;-63
2022/10/16 03:10:13;;;;;;;17.10;7.92;;;;;;;6.35;85.59;149254.44;1782036;80;20923;-64
2022/10/16 03:12:42;;;;;;;21.77;7.80;;;;;;;6.29;85.36;149241.47;1781986;80;20981;-63
2022/10/16 03:15:10;;;;;;;16.57;7.72;;;;;;;6.23;85.18;149225.95;1781729;80;20999;-64
2022/10/16 03:17:36;;;;;;;15.10;6.28;;;;;;;6.19;85.03;149215.62;1781956;80;20966;-63
2022/10/16 03:20:05;;;;;;;15.65;6.83;;;;;;;6.14;84.97;149202.69;1781986;80;21524;-63
2022/10/16 03:22:33;;;;;;;22.15;8.10;;;;;;;6.09;85.01;149191.03;1782101;80;20962;-63
2022/10/16 03:24:59;;;;;;;14.98;6.15;;;;;;;6.06;84.86;149181.97;1781603;80;21017;-64
2022/10/16 03:27:26;;;;;;;16.30;6.05;;;;;;;6.02;84.76;149172.95;1781722;79;21017;-64
2022/10/16 03:29:53;;;;;;;11.65;5.75;;;;;;;5.97;84.60;149161.25;1781988;80;21066;-63
2022/10/16 03:32:20;;;;;;;13.62;5.55;;;;;;;5.92;84.50;149148.33;1781649;79;21122;-63
2022/10/16 03:34:47;;;;;;;9.03;5.45;;;;;;;5.88;84.56;149138.00;1783453;80;21538;-63
2022/10/16 03:37:14;;;;;;;12.33;5.80;;;;;;;5.82;84.52;149122.44;1783219;80;21116;-63
2022/10/16 03:39:41;;;;;;;12.18;5.97;;;;;;;5.76;84.55;149108.25;1783126;80;21503;-63
2022/10/16 03:42:08;;;;;;;10.35;5.35;;;;;;;5.70;84.58;149094.02;1783020;79;21007;-64
2022/10/16 03:44:35;;;;;;;15.10;6.40;;;;;;;5.63;84.60;149075.89;1782889;79;21293;-63
2022/10/16 03:47:07;;;;;;;13.90;6.08;;;;;;;5.57;84.68;149060.39;1781425;80;21269;-66
2022/10/16 03:49:34;;;;;;;10.75;5.72;;;;;;;5.52;85.05;149047.47;1783994;80;21061;-66
2022/10/16 03:52:00;;;;;;;15.32;5.97;;;;;;;5.47;85.16;149035.81;1783164;80;21077;-66
2022/10/16 03:54:27;;;;;;;14.60;5.58;;;;;;;5.42;85.16;149024.22;1783870;80;21010;-66
2022/10/16 03:56:54;;;;;;;11.55;5.58;;;;;;;5.37;85.38;149011.25;1783475;80;21239;-66
2022/10/16 03:59:20;;;;;;;14.93;5.87;;;;;;;5.32;85.51;148998.34;1783985;80;21317;-66
2022/10/16 04:01:49;;;;;;;15.70;5.72;;;;;;;5.28;85.62;148988.02;1783984;80;21030;-66
2022/10/16 04:04:16;;;;;;;12.93;6.08;;;;;;;5.26;86.39;148982.84;1783152;80;21073;-64
2022/10/16 04:06:44;;;;;;;12.40;6.00;;;;;;;5.26;86.57;148982.84;1781841;80;21105;-63
2022/10/16 04:09:11;;;;;;;12.13;5.85;;;;;;;5.24;86.53;148977.69;1783503;79;21432;-64
2022/10/16 04:11:40;;;;;;;12.28;5.60;;;;;;;5.22;86.92;148973.78;1783292;80;20970;-64
2022/10/16 04:14:07;;;;;;;12.15;5.62;;;;;;;5.21;86.98;148969.94;1783388;79;21470;-64
2022/10/16 04:16:35;;;;;;;13.88;5.50;;;;;;;5.18;86.94;148962.14;1783373;80;21057;-64
2022/10/16 04:19:01;;;;;;;22.07;6.10;;;;;;;5.12;87.08;148949.22;1783441;79;20991;-64
2022/10/16 04:21:29;;;;;;;15.90;5.78;;;;;;;5.11;87.23;148945.37;1783538;80;21113;-64
2022/10/16 04:23:56;;;;;;;12.50;5.80;;;;;;;5.09;87.46;148941.47;1783488;80;21444;-63
2022/10/16 04:26:23;;;;;;;11.45;5.20;;;;;;;5.11;87.77;148945.37;1783496;80;21038;-64
2022/10/16 04:28:50;;;;;;;11.80;6.08;;;;;;;5.18;88.03;148962.14;1783648;79;21031;-64
2022/10/16 04:31:17;;;;;;;12.63;5.75;;;;;;;5.29;88.06;148990.59;1784040;80;21061;-63
2022/10/16 04:33:44;;;;;;;14.63;7.12;;;;;;;5.35;87.90;149006.09;1782014;80;22867;-64
2022/10/16 04:36:12;;;;;;;14.75;6.35;;;;;;;5.39;87.78;149016.42;1781959;80;20895;-64
2022/10/16 04:38:39;;;;;;;15.83;5.42;;;;;;;5.45;87.66;149031.97;1781796;80;21475;-64
2022/10/16 04:41:08;;;;;;;26.80;6.10;;;;;;;5.51;87.41;149044.89;1781785;80;20975;-64
2022/10/16 04:43:35;;;;;;;28.15;6.50;;;;;;;5.55;87.19;149055.22;1782172;80;21026;-64
2022/10/16 04:46:04;;;;;;;25.05;6.00;;;;;;;5.62;87.00;149072.03;1781774;80;21232;-64
2022/10/16 04:48:32;;;;;;;20.75;6.03;;;;;;;5.68;86.58;149088.84;1781750;80;21061;-64
2022/10/16 04:50:59;;;;;;;21.12;5.80;;;;;;;5.76;85.95;149106.94;1781916;80;21026;-64
2022/10/16 04:53:26;;;;;;;16.12;6.40;;;;;;;5.84;85.57;149127.61;1783840;80;21555;-66
2022/10/16 04:55:52;;;;;;;21.12;5.70;;;;;;;5.95;85.03;149156.08;1786092;79;21045;-66
2022/10/16 04:58:19;;;;;;;16.27;5.75;;;;;;;6.02;84.20;149174.22;1789632;79;21953;-66
2022/10/16 05:00:46;;;;;;;13.83;5.70;;;;;;;6.08;83.77;149187.14;1787631;79;21085;-66
2022/10/16 05:03:13;;;;;;;15.10;6.15;;;;;;;6.15;83.47;149205.28;1790336;79;20931;-66
2022/10/16 05:05:44;;;;;;;19.70;7.22;;;;;;;6.22;83.09;149222.09;1789968;78;21006;-64
2022/10/16 05:08:13;;;;;;;14.15;5.62;;;;;;;6.27;82.70;149236.30;1788129;79;20991;-66
2022/10/16 05:10:44;;;;;;;11.22;5.45;;;;;;;6.28;82.45;149238.88;1792285;79;22287;-66
2022/10/16 05:13:16;;;;;;;11.97;5.35;;;;;;;6.38;82.32;149262.19;1793474;79;20875;-66
2022/10/16 05:15:49;;;;;;;12.33;5.62;;;;;;;6.48;81.89;149288.03;1793884;79;21026;-67
2022/10/16 05:18:16;;;;;;;14.25;6.22;;;;;;;6.54;81.38;149302.28;1789594;79;21061;-66
2022/10/16 05:20:44;;;;;;;12.63;5.92;;;;;;;6.63;81.26;149324.28;1790146;79;21034;-66
2022/10/16 05:23:11;;;;;;;11.50;5.40;;;;;;;6.71;81.03;149344.97;1792660;79;21233;-66
2022/10/16 05:25:39;;;;;;;13.70;5.75;;;;;;;6.82;80.75;149372.14;1796954;79;21045;-66
2022/10/16 05:28:06;;;;;;;14.95;5.22;;;;;;;6.92;80.39;149396.73;1787385;79;21000;-66
2022/10/16 05:30:34;;;;;;;10.75;5.62;;;;;;;6.99;80.06;149414.88;1793182;79;21001;-66
2022/10/16 05:33:01;;;;;;;10.15;5.72;;;;;;;7.07;79.65;149435.56;1788605;79;21471;-66
2022/10/16 05:35:28;;;;;;;13.18;5.78;;;;;;;7.15;79.09;149454.98;1791820;79;21122;-66
2022/10/16 05:37:55;;;;;;;12.50;6.03;;;;;;;7.18;78.61;149462.75;1792077;79;21561;-66
2022/10/16 05:40:22;;;;;;;13.72;6.37;;;;;;;7.23;78.38;149474.42;1783666;79;21480;-66
2022/10/16 05:42:49;;;;;;;16.80;5.75;;;;;;;7.29;78.05;149489.94;1793336;78;20981;-66
2022/10/16 05:45:16;;;;;;;11.88;5.53;;;;;;;7.34;77.75;149502.88;1784343;79;21101;-65
2022/10/16 05:47:43;;;;;;;15.45;5.75;;;;;;;7.40;77.56;149518.39;1786411;79;21244;-66
2022/10/16 05:50:11;;;;;;;18.25;6.67;;;;;;;7.48;76.89;149537.81;1790114;79;21384;-66
2022/10/16 05:52:38;;;;;;;11.63;6.12;;;;;;;7.53;76.48;149549.48;1792276;79;21002;-66
2022/10/16 05:55:07;;;;;;;12.85;5.62;;;;;;;7.58;76.22;149562.42;1796923;79;21496;-66
2022/10/16 05:57:34;;;;;;;10.85;5.58;;;;;;;7.66;75.84;149581.84;1797614;79;21476;-66
2022/10/16 06:00:00;;;;;;;16.75;5.47;;;;;;;7.71;75.47;149596.11;1799522;79;21453;-66
2022/10/16 06:02:27;;;;;;;11.85;5.40;;;;;;;7.80;75.41;149618.12;1799099;79;20997;-66
2022/10/16 06:04:54;;;;;;;8.53;4.47;;;;;;;7.88;75.29;149637.56;1799347;79;21444;-66
2022/10/16 06:07:21;;;;;;;13.60;4.85;;;;;;;7.98;75.04;149663.44;1798565;79;21472;-66
2022/10/16 06:09:52;;;;;;;11.20;5.05;;;;;;;8.03;74.98;149676.38;1801790;79;21077;-67
2022/10/16 06:12:19;;;;;;;13.60;5.20;;;;;;;8.10;74.76;149691.95;1799253;78;21299;-64
2022/10/16 06:14:48;;;;;;;9.25;4.62;;;;;;;8.15;74.40;149706.16;1797844;79;21018;-65
2022/10/16 06:17:19;;;;;;;10.23;5.03;;;;;;;8.20;74.08;149717.84;1797968;79;20991;-64
2022/10/16 06:19:48;;;;;;;10.55;5.05;;;;;;;8.26;73.83;149733.38;1797848;78;21104;-64
2022/10/16 06:22:15;;;;;;;10.18;4.62;;;;;;;8.34;73.22;149751.53;1796699;79;21061;-64
2022/10/16 06:24:43;;;;;;;14.10;5.60;;;;;;;8.37;72.95;149759.31;1796556;79;21096;-64
2022/10/16 06:27:10;;;;;;;14.13;4.97;;;;;;;8.45;72.99;149781.34;1796171;79;21642;-63
2022/10/16 06:29:37;;;;;;;13.00;4.97;;;;;;;8.55;72.48;149804.69;1796566;79;21088;-64
2022/10/16 06:32:05;;;;;;;15.48;5.20;;;;;;;8.63;72.27;149824.13;1796843;79;21626;-64
2022/10/16 06:34:32;;;;;;;12.82;5.25;;;;;;;8.72;72.34;149847.44;1796360;79;21088;-64
2022/10/16 06:37:00;;;;;;;9.48;5.03;;;;;;;8.83;71.93;149875.97;1773004;79;39479;-64
2022/10/16 06:39:27;;;;;;;12.10;5.20;;;;;;;8.91;71.61;149894.09;1798303;78;22310;-64
2022/10/16 06:41:55;;;;;;;11.43;4.90;;;;;;;9.02;71.10;149922.64;1797953;79;21253;-64
2022/10/16 06:44:23;;;;;;;11.85;4.55;;;;;;;9.08;70.89;149938.19;1798352;79;20938;-64
2022/10/16 06:46:51;;;;;;;9.98;4.85;;;;;;;9.20;70.63;149966.72;1798088;79;21549;-64
2022/10/16 06:49:22;;;;;;;11.40;4.97;;;;;;;9.29;70.65;149990.03;1798100;78;21293;-64
2022/10/16 06:51:46;;;;;;;10.10;5.03;;;;;;;9.39;69.61;150015.94;1797898;79;20958;-64
2022/10/16 06:54:15;;;;;;;11.30;5.12;;;;;;;9.40;68.66;150018.58;1798183;79;21026;-64
2022/10/16 06:56:43;;;;;;;11.15;5.10;;;;;;;9.43;68.79;150025.03;1797791;79;21044;-64
2022/10/16 06:59:09;;;;;;;13.00;5.50;;;;;;;9.48;68.62;150036.72;1797787;79;21061;-64
2022/10/16 07:01:37;;;;;;;9.50;5.53;;;;;;;9.54;68.23;150052.27;1797756;79;21858;-64
2022/10/16 07:04:04;;;;;;;9.50;4.45;;;;;;;9.60;68.12;150067.81;1797446;79;21026;-65
2022/10/16 07:06:33;;;;;;;9.95;4.92;;;;;;;9.66;68.06;150083.41;1797311;78;21112;-65
2022/10/16 07:09:04;;;;;;;8.58;4.62;;;;;;;9.77;68.09;150109.33;1780341;79;21034;-65
2022/10/16 07:11:30;;;;;;;10.68;3.92;;;;;;;9.89;67.77;150140.47;1779718;79;21535;-64
2022/10/16 07:13:57;;;;;;;8.73;4.37;;;;;;;10.01;67.45;150171.58;1784278;79;21203;-63
2022/10/16 07:16:27;;;;;;;12.53;4.25;;;;;;;10.16;66.89;150209.19;1798427;79;21400;-65
2022/10/16 07:18:58;;;;;;;7.60;3.98;;;;;;;10.28;66.25;150239.08;1797958;79;21057;-64
2022/10/16 07:21:28;;;;;;;9.00;4.42;;;;;;;10.37;65.66;150261.08;1798235;79;21034;-63
2022/10/16 07:23:57;;;;;;;5.37;3.08;;;;;;;10.48;64.79;150288.38;1797824;79;21069;-64
2022/10/16 07:26:25;;;;;;;6.65;3.70;;;;;;;10.53;64.34;150301.39;1798700;79;21141;-63
2022/10/16 07:28:52;;;;;;;10.18;3.87;;;;;;;10.57;64.02;150310.44;1797779;79;22197;-63
2022/10/16 07:31:19;;;;;;;13.83;4.25;;;;;;;10.62;64.12;150323.47;1797046;79;20978;-63
2022/10/16 07:33:47;;;;;;;7.33;3.80;;;;;;;10.68;64.23;150337.70;1780254;79;21512;-63
2022/10/16 07:36:16;;;;;;;10.60;3.87;;;;;;;10.75;64.12;150355.91;1780301;80;21047;-64
2022/10/16 07:38:44;;;;;;;7.97;3.92;;;;;;;10.74;63.62;150353.31;1798142;78;21112;-64
2022/10/16 07:41:14;;;;;;;8.05;3.83;;;;;;;10.73;63.69;150350.72;1797874;79;21487;-64
2022/10/16 07:43:47;;;;;;;8.28;3.90;;;;;;;10.76;63.93;150358.50;1798218;78;21057;-63
2022/10/16 07:46:14;;;;;;;11.10;3.90;;;;;;;10.81;63.85;150371.47;1798231;79;20958;-64
2022/10/16 07:48:45;;;;;;;6.92;3.30;;;;;;;10.85;63.37;150381.84;1798301;78;21061;-64
2022/10/16 07:51:12;;;;;;;10.00;4.42;;;;;;;10.86;63.88;150384.44;1797907;79;21183;-65
2022/10/16 07:53:39;;;;;;;7.25;3.30;;;;;;;10.86;62.81;150384.44;1798113;79;20998;-64
2022/10/16 07:56:07;;;;;;;16.20;3.40;;;;;;;10.86;63.03;150384.44;1798080;79;21037;-64
2022/10/16 07:58:37;;;;;;;8.70;3.58;;;;;;;10.92;63.17;150397.41;1783737;79;21090;-64
2022/10/16 08:01:06;;;;;;;9.53;3.27;;;;;;;10.96;62.70;150407.81;1783677;80;21054;-64
2022/10/16 08:03:33;;;;;;;8.18;3.27;;;;;;;10.99;62.40;150415.59;1783999;80;21934;-63
2022/10/16 08:06:01;;;;;;;8.00;3.02;;;;;;;11.04;61.67;150428.58;1783281;79;21019;-65
2022/10/16 08:08:28;;;;;;;5.30;3.22;;;;;;;11.10;61.20;150444.14;1758007;80;21076;-64
2022/10/16 08:10:55;;;;;;;9.70;3.25;;;;;;;11.19;60.12;150466.22;1781694;80;21022;-64
2022/10/16 08:13:22;;;;;;;8.65;3.17;;;;;;;11.27;60.21;150485.69;1782052;80;20998;-64
2022/10/16 08:15:50;;;;;;;5.67;2.95;;;;;;;11.31;60.30;150496.06;1782212;80;22719;-64
2022/10/16 08:18:18;;;;;;;10.60;3.45;;;;;;;11.40;59.46;150518.16;1781887;80;20975;-63
2022/10/16 08:20:47;;;;;;;10.38;3.37;;;;;;;11.46;59.10;150533.72;1781817;80;21085;-63
2022/10/16 08:23:15;;;;;;;9.53;3.05;;;;;;;11.51;58.71;150545.42;1781049;80;21538;-64
2022/10/16 08:25:42;;;;;;;10.45;3.40;;;;;;;11.53;58.91;150550.61;1780784;80;21053;-64
2022/10/16 08:28:10;;;;;;;12.30;3.35;;;;;;;11.58;59.49;150564.91;1781044;80;21692;-64
2022/10/16 08:30:37;;;;;;;11.83;3.42;;;;;;;11.67;59.31;150585.66;1780845;80;21086;-65
2022/10/16 08:33:05;;;;;;;11.22;3.42;;;;;;;11.70;58.75;150594.78;1779615;80;21042;-64
2022/10/16 08:35:32;;;;;;;15.28;3.15;;;;;;;11.73;59.01;150602.56;1783586;79;21502;-64
2022/10/16 08:38:04;;;;;;;6.12;3.27;;;;;;;11.76;58.36;150609.06;1783286;79;20986;-68
2022/10/16 08:40:33;;;;;;;7.42;3.20;;;;;;;11.81;58.36;150620.72;1783306;79;21127;-68
2022/10/16 08:43:29;;;;;;;6.15;3.08;;;;;;;11.84;57.55;150628.56;1784953;80;20939;-67
2022/10/16 08:46:07;;;;;;;7.22;3.45;;;;;;;11.90;57.87;150644.13;1785019;80;21401;-66
2022/10/16 08:48:59;;;;;;;9.13;2.98;;;;;;;11.96;57.60;150658.44;1780219;80;21002;-66
2022/10/16 08:51:33;;;;;;;5.42;3.00;;;;;;;11.95;56.41;150657.11;1692399;80;21027;-68
2022/10/16 08:54:30;;;;;;;9.55;3.17;;;;;;;11.95;56.93;150657.11;1777745;80;21215;-66
2022/10/16 08:57:10;;;;;;;7.25;2.95;;;;;;;11.98;55.97;150663.63;1784362;80;21183;-66
2022/10/16 08:59:36;;;;;;;7.58;2.90;;;;;;;11.98;56.17;150664.89;1761558;80;21021;-66
2022/10/16 09:02:05;;;;;;;7.40;2.92;;;;;;;11.97;56.05;150662.30;1783433;80;21022;-66
2022/10/16 09:04:43;;;;;;;8.70;3.20;;;;;;;11.97;55.58;150662.30;1784203;79;21058;-66
2022/10/16 09:07:40;;;;;;;10.85;2.98;;;;;;;11.98;56.39;150663.63;1784197;79;22169;-66
2022/10/16 09:10:25;;;;;;;6.75;2.70;;;;;;;11.99;56.59;150667.50;1788151;79;20986;-66
2022/10/16 09:13:04;;;;;;;12.63;2.92;;;;;;;12.01;56.28;150672.73;1785125;79;20974;-66
2022/10/16 09:15:50;;;;;;;5.33;2.83;;;;;;;12.02;55.80;150675.33;1785294;79;21771;-66
2022/10/16 09:18:28;;;;;;;8.30;3.35;;;;;;;12.01;55.99;150672.73;1785216;79;21042;-67
2022/10/16 09:21:24;;;;;;;7.62;3.37;;;;;;;12.01;56.11;150672.73;1784098;80;21563;-66
2022/10/16 09:23:51;;;;;;;5.80;2.90;;;;;;;12.05;56.11;150681.84;1781792;80;20999;-66
2022/10/16 09:26:21;;;;;;;7.22;2.80;;;;;;;12.09;55.64;150690.95;1777423;80;21049;-66
2022/10/16 09:28:47;;;;;;;9.45;3.00;;;;;;;12.09;55.79;150690.95;1785083;80;21001;-66
2022/10/16 09:31:18;;;;;;;7.20;2.52;;;;;;;12.10;56.70;150693.55;1784685;80;21069;-66
2022/10/16 09:34:00;;;;;;;9.85;2.83;;;;;;;12.12;56.28;150700.02;1784798;80;21847;-68
2022/10/16 09:36:28;;;;;;;10.35;2.80;;;;;;;12.17;57.43;150711.72;1773275;80;21613;-66
2022/10/16 09:39:05;;;;;;;6.30;2.40;;;;;;;12.25;56.92;150732.50;1785245;79;21033;-67
2022/10/16 09:41:36;;;;;;;11.53;2.27;;;;;;;12.32;55.82;150750.72;1730402;81;21005;-67
2022/10/16 09:44:03;;;;;;;5.45;2.42;;;;;;;12.32;55.21;150750.72;1772178;80;21028;-66
2022/10/16 09:46:35;;;;;;;5.17;2.30;;;;;;;12.36;55.37;150758.50;1784439;80;22332;-66
2022/10/16 09:49:05;;;;;;;6.67;3.55;;;;;;;12.37;54.56;150761.09;1784402;80;21018;-67
2022/10/16 09:51:35;;;;;;;8.20;2.58;;;;;;;12.37;54.81;150761.09;1784375;80;21460;-67
2022/10/16 09:54:11;;;;;;;6.05;2.33;;;;;;;12.38;54.96;150765.02;1783718;80;20992;-66
2022/10/16 09:56:40;;;;;;;3.95;2.20;;;;;;;12.45;54.37;150783.19;1784711;80;20974;-66
2022/10/16 09:59:13;;;;;;;6.08;2.50;;;;;;;12.54;53.75;150805.28;1796256;78;21223;-66
2022/10/16 10:01:48;;;;;;;3.27;2.10;;;;;;;12.60;53.40;150820.88;1794877;79;21006;-66
2022/10/16 10:04:17;;;;;;;4.70;2.20;;;;;;;12.61;53.36;150823.47;1790308;79;20970;-67
2022/10/16 10:06:55;;;;;;;4.67;2.50;;;;;;;12.61;52.82;150823.47;1791971;79;21527;-67
2022/10/16 10:09:35;;;;;;;5.75;2.30;;;;;;;12.64;52.93;150829.98;1793965;79;20962;-67
2022/10/16 10:12:04;;;;;;;5.87;2.17;;;;;;;12.71;52.88;150846.84;1795131;79;21280;-66
2022/10/16 10:14:43;;;;;;;3.25;2.15;;;;;;;12.77;52.96;150862.47;1787527;79;21041;-66
2022/10/16 10:17:22;;;;;;;5.80;2.30;;;;;;;12.84;52.56;150880.66;1781198;79;21049;-67
2022/10/16 10:20:02;;;;;;;5.05;2.30;;;;;;;12.90;52.86;150894.97;1786718;79;21081;-66
2022/10/16 10:22:48;;;;;;;4.85;2.20;;;;;;;12.96;54.10;150909.27;1789318;79;21029;-67
2022/10/16 10:25:39;;;;;;;5.22;2.60;;;;;;;13.01;53.65;150922.25;1777760;79;21183;-66
2022/10/16 10:28:17;;;;;;;4.75;1.80;;;;;;;13.07;52.29;150937.84;1727878;81;21064;-66
2022/10/16 10:30:52;;;;;;;6.50;1.98;;;;;;;13.13;51.58;150952.16;1784388;79;21049;-67
2022/10/16 10:33:36;;;;;;;3.20;2.00;;;;;;;13.15;51.11;150958.67;1784096;79;21030;-68
2022/10/16 10:36:22;;;;;;;5.47;2.17;;;;;;;13.15;50.93;150958.67;1784229;79;21017;-65
2022/10/16 10:39:00;;;;;;;3.35;1.98;;;;;;;13.21;50.37;150971.66;1796701;79;20950;-66
2022/10/16 10:42:01;;;;;;;4.03;1.87;;;;;;;13.27;50.43;150987.25;1789091;79;21014;-66
2022/10/16 10:44:53;;;;;;;5.60;2.00;;;;;;;13.30;50.49;150996.37;1798049;79;21600;-64
2022/10/16 10:47:37;;;;;;;4.33;2.00;;;;;;;13.36;50.17;151010.64;1797865;78;20987;-64
2022/10/16 10:50:28;;;;;;;8.45;2.17;;;;;;;13.39;50.13;151017.16;1797928;78;21010;-64
2022/10/16 10:53:14;;;;;;;4.60;1.85;;;;;;;13.42;50.26;151026.28;1794057;79;21013;-65
2022/10/16 10:55:59;;;;;;;4.10;2.30;;;;;;;13.46;49.85;151035.41;1738273;79;21543;-63
2022/10/16 10:58:37;;;;;;;4.42;2.00;;;;;;;13.48;49.79;151040.59;1788228;79;21060;-64
2022/10/16 11:01:22;;;;;;;6.55;2.20;;;;;;;13.55;50.98;151057.50;1796113;79;21416;-65
2022/10/16 11:04:20;;;;;;;5.28;2.30;;;;;;;13.58;51.47;151065.31;1794582;79;21081;-64
2022/10/16 11:06:51;;;;;;;4.03;2.10;;;;;;;13.60;51.33;151070.55;1796412;79;21231;-63
2022/10/16 11:09:25;;;;;;;8.63;2.40;;;;;;;13.64;50.40;151080.94;1792138;78;21620;-63
2022/10/16 11:12:13;;;;;;;6.12;1.92;;;;;;;13.62;49.81;151075.75;1799710;78;21480;-65
2022/10/16 11:14:49;;;;;;;4.87;1.98;;;;;;;13.60;50.05;151070.55;1798524;78;21436;-65
2022/10/16 11:17:27;;;;;;;4.87;2.27;;;;;;;13.59;49.50;151067.91;1798795;79;21514;-65
2022/10/16 11:20:26;;;;;;;5.35;2.15;;;;;;;13.61;49.80;151074.42;1798734;78;21884;-65
2022/10/16 11:23:16;;;;;;;3.50;2.20;;;;;;;13.65;50.32;151083.55;1759834;80;21058;-65
2022/10/16 11:25:44;;;;;;;6.83;2.15;;;;;;;13.68;50.86;151091.34;1761761;81;21118;-65
2022/10/16 11:28:20;;;;;;;3.70;2.00;;;;;;;13.71;49.95;151097.86;1799645;78;21093;-63
2022/10/16 11:31:08;;;;;;;3.83;2.30;;;;;;;13.70;49.24;151096.53;1798837;79;20990;-64
2022/10/16 11:33:49;;;;;;;4.55;1.92;;;;;;;13.73;48.69;151104.34;1797790;79;21464;-66
2022/10/16 11:36:39;;;;;;;3.37;2.17;;;;;;;13.75;48.82;151109.53;1799321;79;21054;-66
2022/10/16 11:39:22;;;;;;;7.15;2.27;;;;;;;13.80;48.39;151121.25;1798446;78;21437;-63
2022/10/16 11:42:03;;;;;;;6.33;2.17;;;;;;;13.82;49.06;151125.17;1794103;79;21277;-64
2022/10/16 11:45:01;;;;;;;10.25;2.15;;;;;;;13.85;49.34;151132.97;1797393;79;21451;-63
2022/10/16 11:47:44;;;;;;;7.65;2.17;;;;;;;13.83;48.50;151127.77;1797073;79;21886;-63